Time;durP1;ratioP1;P1;durP2;ratioP2;P2;SDS_P1;SDS_P2;PMS_P1;PMS_P2;Temp;Humidity;BMP_temperature;BMP_pressure;BME280_temperature;BME280_humidity;BME280_pressure;Samples;Min_cycle;Max_cycle;Signal;HPM_P1;HPM_P2
2023/06/10 00:01:36;;;;;;;12.10;7.42;;;;;;;21.58;65.03;100671.86;5087919;57;1140509;-64
2023/06/10 00:06:43;;;;;;;12.15;7.62;;;;;;;21.48;65.84;100679.39;5140185;57;1140521;-62
2023/06/10 00:11:49;;;;;;;12.30;6.12;;;;;;;21.34;66.03;100678.38;5146396;57;1140721;-63
2023/06/10 00:16:55;;;;;;;13.00;6.50;;;;;;;21.28;66.66;100676.41;5056911;58;1140473;-63
2023/06/10 00:22:00;;;;;;;14.83;8.45;;;;;;;21.20;67.87;100684.58;5056771;57;1140478;-63
2023/06/10 00:27:06;;;;;;;7.75;5.75;;;;;;;21.08;67.54;100689.22;5076327;58;1141034;-63
2023/06/10 00:32:12;;;;;;;15.28;6.33;;;;;;;21.03;67.98;100692.45;5056445;58;1138547;-64
2023/06/10 00:37:17;;;;;;;7.72;4.87;;;;;;;20.98;68.28;100694.84;5056753;58;1140491;-62
2023/06/10 00:42:24;;;;;;;9.70;5.53;;;;;;;20.90;68.13;100691.73;5056979;58;1138789;-63
2023/06/10 00:47:31;;;;;;;11.15;5.80;;;;;;;20.87;68.80;100684.53;5099467;57;1138635;-63
2023/06/10 00:52:37;;;;;;;10.23;5.25;;;;;;;20.71;68.84;100688.19;5072246;57;1141250;-62
2023/06/10 00:57:44;;;;;;;10.38;5.03;;;;;;;20.59;69.56;100690.98;5125108;57;1140568;-62
2023/06/10 01:02:53;;;;;;;7.47;4.25;;;;;;;20.53;69.89;100692.52;5138191;57;1141033;-64
2023/06/10 01:08:15;;;;;;;11.97;5.22;;;;;;;20.50;70.17;100700.94;4983133;58;1138422;-63
2023/06/10 01:13:23;;;;;;;13.85;5.97;;;;;;;20.44;70.35;100707.55;5134870;57;1140488;-64
2023/06/10 01:18:33;;;;;;;15.23;5.22;;;;;;;20.40;70.77;100708.41;5054118;58;1140783;-62
2023/06/10 01:23:38;;;;;;;11.45;4.95;;;;;;;20.34;70.72;100704.54;5159520;57;1141008;-64
2023/06/10 01:29:00;;;;;;;6.87;4.92;;;;;;;20.30;70.80;100715.33;5140215;57;1140744;-62
2023/06/10 01:34:10;;;;;;;8.60;4.73;;;;;;;20.23;71.08;100712.17;5052463;58;1138850;-63
2023/06/10 01:39:22;;;;;;;9.65;4.53;;;;;;;20.03;71.36;100711.77;4911330;60;1138817;-62
2023/06/10 01:44:27;;;;;;;10.58;5.65;;;;;;;19.93;72.03;100715.18;5055591;58;1138601;-63
2023/06/10 01:49:33;;;;;;;7.63;4.87;;;;;;;19.86;72.39;100715.03;5050431;58;1141203;-63
2023/06/10 01:54:38;;;;;;;10.08;5.78;;;;;;;19.78;72.88;100715.08;5004905;59;1139189;-63
2023/06/10 01:59:46;;;;;;;14.78;5.16;;;;;;;19.70;73.47;100721.83;4985372;59;1141026;-62
2023/06/10 02:04:51;;;;;;;8.30;5.53;;;;;;;19.65;73.16;100719.66;4984388;59;1140900;-62
2023/06/10 02:09:58;;;;;;;9.68;4.78;;;;;;;19.55;73.48;100725.73;5039338;58;1138804;-63
2023/06/10 02:15:04;;;;;;;10.85;5.47;;;;;;;19.44;74.13;100730.57;5070469;57;1138485;-62
2023/06/10 02:20:10;;;;;;;7.72;5.28;;;;;;;19.30;74.20;100736.13;5070410;57;1140817;-63
2023/06/10 02:25:16;;;;;;;10.20;5.72;;;;;;;19.23;74.72;100739.18;5089343;58;1139261;-63
2023/06/10 02:30:22;;;;;;;11.08;5.40;;;;;;;19.15;75.61;100741.85;5013599;58;1140850;-64
2023/06/10 02:35:28;;;;;;;11.83;6.00;;;;;;;19.07;75.58;100749.41;4989158;58;1140973;-64
2023/06/10 02:40:40;;;;;;;18.65;5.53;;;;;;;19.09;76.20;100750.09;5008333;58;1140867;-64
2023/06/10 02:45:42;;;;;;;7.78;5.33;;;;;;;19.00;75.89;100762.30;5011682;58;1140681;-63
2023/06/10 02:50:47;;;;;;;12.23;5.67;;;;;;;18.88;76.18;100757.78;5071332;57;1138454;-62
2023/06/10 02:55:57;;;;;;;10.20;5.30;;;;;;;18.84;76.40;100763.97;5088816;58;1141253;-63
2023/06/10 03:01:03;;;;;;;17.07;6.80;;;;;;;18.84;76.66;100756.43;5070952;57;1140498;-63
2023/06/10 03:06:12;;;;;;;8.30;5.17;;;;;;;18.84;76.69;100762.63;5069211;57;1140588;-63
2023/06/10 03:11:19;;;;;;;9.93;5.50;;;;;;;18.80;76.51;100763.95;5079877;57;1139156;-65
2023/06/10 03:16:25;;;;;;;14.87;7.33;;;;;;;18.81;76.65;100771.50;5223781;56;1138914;-63
2023/06/10 03:21:31;;;;;;;15.82;6.78;;;;;;;18.85;76.35;100787.09;5154076;57;1140765;-63
2023/06/10 03:26:37;;;;;;;11.97;5.90;;;;;;;18.91;76.46;100790.45;5153834;57;1140826;-63
2023/06/10 03:31:44;;;;;;;8.28;5.17;;;;;;;19.00;76.29;100789.11;5173702;57;1141059;-63
2023/06/10 03:36:50;;;;;;;11.53;5.55;;;;;;;19.04;75.95;100802.02;5154053;57;1138726;-62
2023/06/10 03:42:01;;;;;;;12.28;5.33;;;;;;;19.03;75.75;100811.06;5153848;57;1140481;-62
2023/06/10 03:47:04;;;;;;;16.93;6.42;;;;;;;19.04;76.08;100819.44;5130381;57;1140772;-63
2023/06/10 03:52:10;;;;;;;14.73;6.00;;;;;;;19.06;76.24;100824.14;4985828;59;1140328;-62
2023/06/10 03:57:16;;;;;;;11.30;6.40;;;;;;;19.07;76.23;100841.91;5129840;57;1140537;-62
2023/06/10 04:02:22;;;;;;;15.95;5.87;;;;;;;19.08;76.69;100848.11;5101285;57;1141171;-62
2023/06/10 04:07:28;;;;;;;7.70;4.90;;;;;;;19.08;76.53;100854.81;5160212;57;1141067;-62
2023/06/10 04:12:33;;;;;;;29.63;6.00;;;;;;;19.15;76.37;100866.53;5133519;57;1138596;-63
2023/06/10 04:17:39;;;;;;;16.95;5.37;;;;;;;19.19;76.20;100867.88;5121414;57;1140802;-62
2023/06/10 04:22:45;;;;;;;9.83;4.95;;;;;;;19.25;75.94;100873.40;5141146;57;1141271;-63
2023/06/10 04:27:51;;;;;;;9.20;5.00;;;;;;;19.30;75.55;100886.32;5121511;57;1138780;-62
2023/06/10 04:32:57;;;;;;;17.55;5.90;;;;;;;19.34;75.69;100894.37;5121566;57;1138709;-63
2023/06/10 04:38:03;;;;;;;8.53;5.20;;;;;;;19.39;75.43;100892.55;5141266;57;1140785;-62
2023/06/10 04:43:09;;;;;;;11.08;5.22;;;;;;;19.46;75.86;100915.00;5094749;57;1138400;-63
2023/06/10 04:48:15;;;;;;;48.63;6.40;;;;;;;19.49;75.65;100914.20;5056961;58;1140674;-62
2023/06/10 04:53:21;;;;;;;13.78;4.75;;;;;;;19.51;75.84;100916.72;4959682;59;1140910;-64
2023/06/10 04:58:28;;;;;;;17.15;5.70;;;;;;;19.60;75.72;100921.91;5076597;58;1141113;-62
2023/06/10 05:03:33;;;;;;;9.45;5.10;;;;;;;19.75;76.23;100925.27;5121248;57;1140788;-62
2023/06/10 05:08:39;;;;;;;13.45;5.17;;;;;;;19.86;75.90;100929.78;5140429;57;1138458;-63
2023/06/10 05:13:44;;;;;;;23.18;5.17;;;;;;;19.92;75.72;100934.98;5148779;57;1140759;-61
2023/06/10 05:18:52;;;;;;;51.20;6.78;;;;;;;19.93;75.30;100936.66;5125843;57;1140580;-62
2023/06/10 05:23:57;;;;;;;11.83;4.87;;;;;;;19.94;75.70;100946.39;5124260;57;1140790;-62
2023/06/10 05:29:03;;;;;;;15.40;5.17;;;;;;;19.96;75.46;100951.09;5077197;58;1141202;-64
2023/06/10 05:34:09;;;;;;;27.62;6.33;;;;;;;19.96;76.13;100952.44;5088673;57;1141026;-63
2023/06/10 05:39:14;;;;;;;8.33;4.90;;;;;;;20.00;75.30;100956.47;5138016;57;1140527;-63
2023/06/10 05:44:20;;;;;;;21.27;6.03;;;;;;;20.02;74.58;100954.42;5138068;57;1138914;-62
2023/06/10 05:49:26;;;;;;;21.55;5.42;;;;;;;19.99;74.25;100961.00;5140647;57;1140980;-63
2023/06/10 05:54:31;;;;;;;14.23;5.47;;;;;;;19.96;74.01;100963.18;5125758;57;1140715;-64
2023/06/10 05:59:37;;;;;;;16.30;4.92;;;;;;;20.01;74.05;100958.95;5152176;57;1140879;-63
2023/06/10 06:04:42;;;;;;;12.05;4.92;;;;;;;20.21;74.25;100953.23;5171821;57;1141008;-64
2023/06/10 06:09:49;;;;;;;10.18;5.08;;;;;;;20.40;72.54;100956.92;5151856;57;1140767;-63
2023/06/10 06:14:54;;;;;;;10.60;4.47;;;;;;;20.50;71.85;100961.59;5082425;57;1140491;-61
2023/06/10 06:20:00;;;;;;;15.45;4.90;;;;;;;20.59;71.38;100957.88;5087897;57;1140767;-62
2023/06/10 06:25:06;;;;;;;21.10;4.22;;;;;;;20.77;70.19;100954.96;5068315;57;1140520;-63
2023/06/10 06:30:12;;;;;;;12.30;4.47;;;;;;;20.98;69.06;100950.30;5068314;57;1140708;-63
2023/06/10 06:35:19;;;;;;;19.82;4.92;;;;;;;21.22;67.85;100950.22;5082965;57;1141089;-63
2023/06/10 06:40:24;;;;;;;13.15;3.72;;;;;;;21.42;67.02;100958.64;5040371;58;1140740;-62
2023/06/10 06:45:30;;;;;;;15.28;5.33;;;;;;;21.55;65.64;100960.73;5068023;58;1140966;-63
2023/06/10 06:50:35;;;;;;;12.67;4.93;;;;;;;21.65;65.02;100964.88;5068279;58;1140960;-64
2023/06/10 06:55:41;;;;;;;20.70;5.00;;;;;;;21.62;65.06;100953.62;5087841;58;1141016;-64
2023/06/10 07:00:47;;;;;;;14.98;5.08;;;;;;;21.60;64.95;100960.53;5086196;57;1140724;-63
2023/06/10 07:05:52;;;;;;;13.53;5.15;;;;;;;21.44;64.15;100961.16;5140193;57;1140582;-64
2023/06/10 07:10:58;;;;;;;15.38;4.67;;;;;;;21.31;65.05;100963.94;5114133;57;1140736;-62
2023/06/10 07:16:04;;;;;;;22.77;5.72;;;;;;;21.34;66.36;100962.24;5068166;58;1140446;-62
2023/06/10 07:21:09;;;;;;;8.93;5.30;;;;;;;21.61;68.36;100950.61;5068224;58;1140521;-64
2023/06/10 07:26:15;;;;;;;9.03;4.60;;;;;;;22.11;67.83;100954.08;5087744;58;1138878;-62
2023/06/10 07:31:20;;;;;;;9.80;6.15;;;;;;;22.57;67.40;100956.11;5068256;58;1138495;-64
2023/06/10 07:36:32;;;;;;;13.70;5.25;;;;;;;22.76;65.33;100952.02;5068378;58;1138601;-63
2023/06/10 07:41:33;;;;;;;16.00;4.70;;;;;;;22.80;65.05;100962.24;5095343;57;1140742;-63
2023/06/10 07:46:39;;;;;;;22.35;5.22;;;;;;;22.76;63.65;100966.33;5078795;57;1140554;-62
2023/06/10 07:51:44;;;;;;;7.87;4.37;;;;;;;22.65;64.30;100956.50;5068889;58;1141151;-63
2023/06/10 07:56:52;;;;;;;17.17;4.60;;;;;;;22.60;63.05;100966.52;5089539;58;1138912;-63
2023/06/10 08:01:57;;;;;;;12.75;4.42;;;;;;;22.50;62.16;100974.03;5107565;57;1140836;-64
2023/06/10 08:07:03;;;;;;;17.23;4.65;;;;;;;22.37;62.24;100977.89;5153307;57;1140724;-63
2023/06/10 08:12:09;;;;;;;10.63;5.08;;;;;;;22.32;63.30;100975.73;5149756;57;1140807;-62
2023/06/10 08:17:16;;;;;;;18.98;4.70;;;;;;;22.40;63.29;100980.22;5069735;58;1140731;-62
2023/06/10 08:22:22;;;;;;;14.58;4.33;;;;;;;22.30;61.74;100983.20;5070044;58;1140521;-63
2023/06/10 08:27:27;;;;;;;13.70;4.80;;;;;;;22.38;62.66;100992.53;5070057;58;1140983;-64
2023/06/10 08:32:33;;;;;;;14.73;4.50;;;;;;;22.74;64.24;100987.77;5089609;58;1141110;-64
2023/06/10 08:37:38;;;;;;;14.60;4.95;;;;;;;22.98;61.00;100986.64;5076403;57;1140526;-63
2023/06/10 08:43:03;;;;;;;21.68;4.78;;;;;;;22.99;58.40;100988.31;5153788;57;1140720;-63
2023/06/10 08:48:09;;;;;;;10.55;3.83;;;;;;;22.87;58.96;100987.13;5173666;57;1140994;-64
2023/06/10 08:53:19;;;;;;;12.25;4.12;;;;;;;22.78;58.19;100989.07;5073353;57;1140624;-62
2023/06/10 08:58:25;;;;;;;12.07;4.30;;;;;;;22.96;60.02;100969.80;5070534;58;1140460;-63
2023/06/10 09:03:33;;;;;;;8.80;4.72;;;;;;;23.16;59.29;100970.89;5005360;57;1140944;-64
2023/06/10 09:08:40;;;;;;;17.60;4.83;;;;;;;23.43;57.14;100966.09;5035287;58;1139121;-63
2023/06/10 09:13:46;;;;;;;12.53;4.55;;;;;;;23.59;56.23;100970.95;5039325;58;1140802;-64
2023/06/10 09:18:54;;;;;;;9.15;4.33;;;;;;;23.97;57.46;100974.22;5072138;58;1140485;-71
2023/06/10 09:23:59;;;;;;;8.45;4.58;;;;;;;24.34;54.33;100975.77;5088946;57;1138930;-64
2023/06/10 09:29:08;;;;;;;19.23;5.22;;;;;;;24.59;54.51;100978.86;5078800;57;1138712;-64
2023/06/10 09:34:17;;;;;;;12.30;5.60;;;;;;;24.94;50.86;100974.26;5070180;58;1140815;-64
2023/06/10 09:39:22;;;;;;;24.90;4.83;;;;;;;25.21;51.40;100972.79;5070413;58;1141294;-64
2023/06/10 09:44:30;;;;;;;7.60;4.80;;;;;;;25.52;51.06;100964.64;5089690;58;1141040;-64
2023/06/10 09:49:39;;;;;;;24.77;5.28;;;;;;;25.79;49.39;100973.69;5070041;58;1138765;-64
2023/06/10 09:54:46;;;;;;;15.78;5.15;;;;;;;25.96;49.61;100965.46;5124549;57;1140842;-63
2023/06/10 09:59:55;;;;;;;32.17;5.67;;;;;;;26.18;45.96;100964.17;5005752;59;1140720;-63
2023/06/10 10:05:07;;;;;;;15.00;5.05;;;;;;;26.43;49.11;100967.08;5070100;57;1140830;-63
2023/06/10 10:10:17;;;;;;;26.07;5.12;;;;;;;26.65;48.07;100958.69;5070447;58;1140715;-64
2023/06/10 10:15:26;;;;;;;16.87;4.90;;;;;;;26.82;47.82;100957.17;5070101;58;1141098;-64
2023/06/10 10:20:35;;;;;;;14.60;4.87;;;;;;;27.08;46.68;100957.08;5089633;58;1140909;-64
2023/06/10 10:25:43;;;;;;;15.95;4.97;;;;;;;27.29;42.92;100947.26;5031622;58;1140773;-64
2023/06/10 10:30:53;;;;;;;13.53;4.70;;;;;;;27.51;42.54;100953.16;5131971;57;1140877;-65
2023/06/10 10:36:00;;;;;;;8.05;3.55;;;;;;;27.54;41.95;100943.74;5089041;57;1141154;-65
2023/06/10 10:41:06;;;;;;;4.70;3.70;;;;;;;27.71;37.62;100940.83;5119606;57;1138591;-64
2023/06/10 10:46:18;;;;;;;13.22;4.08;;;;;;;27.93;35.33;100942.13;5140168;57;1138886;-64
2023/06/10 10:51:25;;;;;;;10.84;4.86;;;;;;;27.98;34.74;100937.35;5154063;57;1141113;-64
2023/06/10 10:56:30;;;;;;;17.85;9.53;;;;;;;28.12;32.49;100941.61;5173858;57;1141025;-64
2023/06/10 11:01:46;;;;;;;21.73;5.60;;;;;;;28.28;34.73;100943.78;5150179;57;1141133;-64
2023/06/10 11:06:59;;;;;;;8.23;5.53;;;;;;;28.37;33.83;100933.45;5154033;57;1140851;-63
2023/06/10 11:12:07;;;;;;;6.73;5.77;;;;;;;28.41;30.10;100927.04;5134594;57;1138839;-64
2023/06/10 11:17:21;;;;;;;20.48;11.45;;;;;;;28.37;30.48;100919.85;5149956;57;1138627;-64
2023/06/10 11:22:26;;;;;;;8.83;3.60;;;;;;;28.39;30.66;100923.71;5072697;57;1142794;-65
2023/06/10 11:27:39;;;;;;;11.43;4.10;;;;;;;28.35;32.86;100926.88;5070256;57;1139160;-64
2023/06/10 11:32:45;;;;;;;5.30;4.15;;;;;;;28.29;34.60;100925.57;5089769;58;1141057;-63
2023/06/10 11:37:51;;;;;;;8.98;4.03;;;;;;;28.53;34.66;100924.69;5070243;58;1139045;-64
2023/06/10 11:42:57;;;;;;;16.20;4.28;;;;;;;28.78;32.85;100924.59;5102520;57;1138483;-64
2023/06/10 11:48:03;;;;;;;13.78;3.95;;;;;;;28.85;32.84;100923.19;4920602;59;1140987;-63
2023/06/10 11:53:10;;;;;;;24.67;4.33;;;;;;;29.08;32.95;100920.55;5058451;57;1140619;-64
2023/06/10 11:58:19;;;;;;;11.90;4.05;;;;;;;29.23;31.47;100929.14;5037051;57;1140670;-65
2023/06/10 12:03:30;;;;;;;7.77;4.43;;;;;;;29.35;32.13;100921.00;5035242;57;1140898;-63
2023/06/10 12:08:34;;;;;;;17.02;4.20;;;;;;;29.32;31.46;100920.12;5052509;58;1139035;-64
2023/06/10 12:13:43;;;;;;;9.68;5.33;;;;;;;29.34;31.48;100926.98;5042912;57;1140816;-64
2023/06/10 12:18:49;;;;;;;13.30;3.40;;;;;;;29.32;31.19;100935.94;5036059;57;1138564;-64
2023/06/10 12:24:12;;;;;;;10.28;3.22;;;;;;;29.43;30.86;100932.97;5069248;57;1141060;-64
2023/06/10 12:29:22;;;;;;;7.95;5.35;;;;;;;29.33;30.50;100919.86;4967917;58;1140774;-65
2023/06/10 12:34:37;;;;;;;31.82;5.03;;;;;;;29.26;28.76;100922.41;4998316;58;1138814;-63
2023/06/10 12:39:43;;;;;;;17.98;4.33;;;;;;;29.35;29.96;100921.83;5020955;58;1141057;-64
2023/06/10 12:44:56;;;;;;;8.43;4.55;;;;;;;29.54;30.09;100928.61;4986307;58;1140645;-64
2023/06/10 12:50:04;;;;;;;37.30;4.87;;;;;;;29.52;29.81;100921.19;4951517;59;1138385;-65
2023/06/10 12:55:10;;;;;;;3.85;2.83;;;;;;;29.54;28.74;100924.52;4996056;58;1140547;-64
2023/06/10 13:00:16;;;;;;;7.03;3.00;;;;;;;29.61;29.26;100912.46;4992349;58;1138856;-65
2023/06/10 13:05:22;;;;;;;11.88;3.70;;;;;;;29.70;29.87;100906.95;4970147;58;1139002;-64
2023/06/10 13:10:28;;;;;;;4.43;3.40;;;;;;;29.74;27.96;100901.86;4973261;58;1140828;-64
2023/06/10 13:15:36;;;;;;;9.65;4.05;;;;;;;29.71;27.21;100903.69;4992075;58;1138769;-65
2023/06/10 13:20:42;;;;;;;6.58;3.47;;;;;;;29.64;25.45;100896.97;5010345;57;1138497;-64
2023/06/10 13:25:48;;;;;;;33.13;5.97;;;;;;;29.39;26.54;100903.16;5053794;57;1138919;-63
2023/06/10 13:30:53;;;;;;;40.85;10.98;;;;;;;29.53;27.62;100881.97;4988397;58;1141097;-64
2023/06/10 13:35:59;;;;;;;11.85;4.05;;;;;;;29.67;28.43;100897.87;4937797;58;1143031;-65
2023/06/10 13:41:06;;;;;;;7.33;3.77;;;;;;;29.82;28.11;100899.30;4985851;58;1140876;-63
2023/06/10 13:46:11;;;;;;;17.12;8.88;;;;;;;29.88;28.42;100891.02;5013496;58;1138651;-64
2023/06/10 13:51:17;;;;;;;16.17;5.30;;;;;;;29.71;26.23;100888.70;4967520;58;1140612;-64
2023/06/10 13:56:22;;;;;;;9.93;3.30;;;;;;;29.61;26.00;100883.00;4998583;56;1140790;-63
2023/06/10 14:01:28;;;;;;;20.97;4.17;;;;;;;29.76;27.14;100890.19;5165589;56;1139015;-64
2023/06/10 14:06:34;;;;;;;14.50;3.02;;;;;;;29.81;26.10;100884.84;5241033;56;1140744;-64
2023/06/10 14:11:40;;;;;;;28.20;3.80;;;;;;;29.83;25.66;100888.16;5221123;56;1140485;-63
2023/06/10 14:16:45;;;;;;;12.37;3.70;;;;;;;29.87;25.15;100869.44;5187086;56;1140561;-63
2023/06/10 14:21:52;;;;;;;6.10;3.20;;;;;;;29.93;26.38;100879.41;5154849;57;1141094;-63
2023/06/10 14:26:58;;;;;;;9.30;3.00;;;;;;;30.00;25.73;100875.50;5150197;56;1138200;-64
2023/06/10 14:32:04;;;;;;;27.52;4.22;;;;;;;30.08;25.92;100882.52;5208847;56;1138654;-65
2023/06/10 14:37:10;;;;;;;13.62;2.87;;;;;;;30.05;24.01;100882.98;5217632;56;1141052;-63
2023/06/10 14:42:15;;;;;;;19.52;3.20;;;;;;;29.98;24.92;100882.27;5161616;56;1140826;-64
2023/06/10 14:47:21;;;;;;;19.77;3.25;;;;;;;29.94;23.95;100883.80;5115787;57;1140895;-64
2023/06/10 14:52:27;;;;;;;85.27;7.50;;;;;;;29.78;23.43;100895.41;5135028;57;1141273;-64
2023/06/10 14:57:33;;;;;;;3.77;3.05;;;;;;;29.76;23.36;100887.99;5141380;57;1140748;-63
2023/06/10 15:02:38;;;;;;;17.82;3.70;;;;;;;29.77;23.34;100894.58;5125118;57;1138841;-64
2023/06/10 15:07:45;;;;;;;34.50;3.55;;;;;;;29.59;22.76;100891.95;5134934;57;1140808;-64
2023/06/10 15:12:55;;;;;;;9.03;3.42;;;;;;;29.34;21.32;100895.64;5154724;57;1141020;-64
2023/06/10 15:17:58;;;;;;;5.47;2.70;;;;;;;29.17;21.99;100897.92;5088016;57;1138449;-64
2023/06/10 15:23:03;;;;;;;14.25;3.87;;;;;;;29.15;21.62;100890.52;5104634;57;1138380;-63
2023/06/10 15:28:09;;;;;;;9.30;3.35;;;;;;;29.21;22.05;100891.76;5144169;56;1141070;-64
2023/06/10 15:33:14;;;;;;;6.10;2.83;;;;;;;29.18;21.97;100899.59;5134957;57;1138668;-65
2023/06/10 15:38:20;;;;;;;10.85;3.30;;;;;;;29.13;21.79;100909.81;5095125;57;1138681;-63
2023/06/10 15:43:26;;;;;;;7.50;3.62;;;;;;;29.05;21.92;100899.22;5143964;57;1140749;-64
2023/06/10 15:48:31;;;;;;;9.73;3.17;;;;;;;29.02;21.91;100891.54;5067639;57;1138908;-65
2023/06/10 15:53:37;;;;;;;15.28;3.58;;;;;;;28.73;22.20;100889.58;4989914;58;1138403;-63
2023/06/10 15:58:43;;;;;;;8.10;3.55;;;;;;;28.42;22.27;100892.77;4988957;58;1140630;-64
2023/06/10 16:03:48;;;;;;;17.75;3.42;;;;;;;28.31;23.09;100897.09;5088933;57;1138652;-64
2023/06/10 16:08:54;;;;;;;14.35;2.67;;;;;;;28.24;21.72;100900.42;4997480;58;1140781;-64
2023/06/10 16:13:59;;;;;;;11.55;2.60;;;;;;;28.00;22.11;100901.25;5048166;56;1140433;-64
2023/06/10 16:19:05;;;;;;;11.38;2.92;;;;;;;27.92;22.23;100898.84;5061184;58;1140790;-63
2023/06/10 16:24:11;;;;;;;3.45;2.90;;;;;;;27.87;22.41;100903.58;5070356;57;1140494;-63
2023/06/10 16:29:17;;;;;;;17.42;2.75;;;;;;;27.76;22.49;100907.55;5073939;57;1138799;-63
2023/06/10 16:34:23;;;;;;;11.97;2.22;;;;;;;27.70;22.91;100913.34;5071262;57;1140842;-63
2023/06/10 16:39:29;;;;;;;17.95;2.52;;;;;;;27.58;22.57;100909.16;5082985;58;1140771;-64
2023/06/10 16:44:34;;;;;;;3.20;2.00;;;;;;;27.52;22.75;100915.95;5073878;58;1140835;-63
2023/06/10 16:49:40;;;;;;;3.83;1.95;;;;;;;27.41;21.90;100924.30;5101079;58;1138901;-63
2023/06/10 16:54:45;;;;;;;3.27;2.05;;;;;;;27.27;22.35;100912.69;5120663;58;1138963;-64
2023/06/10 16:59:51;;;;;;;33.40;3.47;;;;;;;27.14;22.76;100923.64;5086072;57;1138944;-64
2023/06/10 17:04:57;;;;;;;11.20;3.42;;;;;;;26.98;22.95;100924.66;5038217;57;1140480;-64
2023/06/10 17:10:03;;;;;;;15.28;2.65;;;;;;;26.92;23.42;100927.67;5051058;58;1140851;-63
2023/06/10 17:15:09;;;;;;;5.40;1.52;;;;;;;26.90;23.27;100940.11;5037016;57;1140529;-63
2023/06/10 17:20:15;;;;;;;10.85;2.55;;;;;;;26.83;22.80;100935.77;5011419;57;1138556;-64
2023/06/10 17:25:21;;;;;;;5.20;2.02;;;;;;;26.63;23.51;100949.41;5063180;57;1140843;-63
2023/06/10 17:30:26;;;;;;;7.08;2.00;;;;;;;26.51;23.82;100949.76;5075226;57;1139164;-62
2023/06/10 17:35:32;;;;;;;10.78;1.90;;;;;;;26.37;24.07;100959.81;5057122;57;1138940;-64
2023/06/10 17:40:39;;;;;;;4.10;2.40;;;;;;;26.24;24.47;100962.52;5082472;57;1140857;-63
2023/06/10 17:45:44;;;;;;;8.75;2.92;;;;;;;26.21;25.01;100969.70;5064576;57;1138718;-63
2023/06/10 17:50:50;;;;;;;9.28;2.05;;;;;;;26.09;25.04;100974.94;5054519;58;1138921;-64
2023/06/10 17:55:56;;;;;;;15.93;2.98;;;;;;;25.93;25.15;100982.13;5054269;58;1138435;-64
2023/06/10 18:01:01;;;;;;;6.03;2.30;;;;;;;25.78;25.02;100978.79;5050428;58;1141389;-64
2023/06/10 18:06:07;;;;;;;5.95;2.27;;;;;;;25.61;24.83;100979.67;4966212;59;1138602;-62
2023/06/10 18:11:13;;;;;;;9.93;1.98;;;;;;;25.43;24.94;100987.03;4980670;57;1138760;-63
2023/06/10 18:16:18;;;;;;;7.40;1.82;;;;;;;25.23;25.08;100984.77;5066033;58;1139036;-64
2023/06/10 18:21:24;;;;;;;3.27;2.15;;;;;;;25.08;25.37;100993.05;5046694;58;1138724;-63
2023/06/10 18:26:29;;;;;;;27.47;9.83;;;;;;;24.99;25.57;101006.97;5046725;58;1138705;-64
2023/06/10 18:31:35;;;;;;;26.40;9.63;;;;;;;24.92;25.94;100999.30;5066051;58;1141004;-63
2023/06/10 18:36:41;;;;;;;23.35;5.70;;;;;;;24.82;25.99;101009.98;4973124;58;1140726;-64
2023/06/10 18:41:46;;;;;;;3.83;2.50;;;;;;;24.71;26.36;101015.12;4962266;59;1140818;-62
2023/06/10 18:46:52;;;;;;;19.32;2.30;;;;;;;24.53;26.65;101029.16;4981233;59;1138681;-63
2023/06/10 18:51:57;;;;;;;7.00;1.87;;;;;;;24.34;27.82;101027.13;4963426;59;1140503;-64
2023/06/10 18:57:03;;;;;;;6.70;2.00;;;;;;;24.17;29.07;101037.36;4966366;58;1138460;-64
2023/06/10 19:02:10;;;;;;;14.45;2.42;;;;;;;23.99;30.71;101045.93;4982291;58;1138676;-63
2023/06/10 19:07:15;;;;;;;14.95;2.98;;;;;;;23.85;31.58;101054.42;4938519;58;1140748;-64
2023/06/10 19:12:22;;;;;;;6.67;2.33;;;;;;;23.58;33.34;101059.74;4860018;59;1140874;-63
2023/06/10 19:17:28;;;;;;;9.78;2.00;;;;;;;23.29;34.74;101064.16;4860228;59;1138507;-63
2023/06/10 19:22:33;;;;;;;4.55;1.87;;;;;;;23.05;36.18;101069.87;4878914;59;1138779;-64
2023/06/10 19:27:39;;;;;;;10.03;2.62;;;;;;;22.92;36.51;101081.28;4906896;57;1138805;-65
2023/06/10 19:32:45;;;;;;;4.72;2.70;;;;;;;22.73;38.11;101078.61;5001388;57;1140733;-64
2023/06/10 19:37:51;;;;;;;4.60;2.83;;;;;;;22.53;38.58;101086.89;4977893;57;1138763;-63
2023/06/10 19:42:57;;;;;;;8.93;2.30;;;;;;;22.39;38.76;101098.48;4971458;57;1138625;-63
2023/06/10 19:48:03;;;;;;;13.50;2.40;;;;;;;22.31;39.22;101095.84;4993335;57;1138523;-63
2023/06/10 19:53:09;;;;;;;5.90;2.58;;;;;;;22.28;39.15;101101.62;5022694;57;1140601;-64
2023/06/10 19:58:14;;;;;;;9.73;3.00;;;;;;;22.29;39.28;101103.30;4936257;58;1138654;-63
2023/06/10 20:03:20;;;;;;;8.25;3.65;;;;;;;22.29;39.37;101110.03;4980895;57;1138896;-62
2023/06/10 20:08:26;;;;;;;7.33;2.53;;;;;;;22.26;39.69;101117.12;4945003;58;1138719;-63
2023/06/10 20:13:32;;;;;;;5.12;3.08;;;;;;;22.22;39.73;101115.30;4968178;58;1138633;-63
2023/06/10 20:18:38;;;;;;;8.20;3.22;;;;;;;22.19;40.03;101115.64;4963424;58;1138697;-65
2023/06/10 20:23:44;;;;;;;7.40;2.05;;;;;;;22.07;40.28;101119.27;4949163;57;1138645;-63
2023/06/10 20:28:49;;;;;;;8.20;2.62;;;;;;;21.92;40.48;101125.58;4968230;58;1138659;-63
2023/06/10 20:33:56;;;;;;;10.88;1.87;;;;;;;21.68;40.86;101131.95;4942323;58;1138932;-62
2023/06/10 20:39:01;;;;;;;17.73;11.18;;;;;;;21.54;41.24;101125.97;4870392;58;1141258;-63
2023/06/10 20:44:07;;;;;;;18.65;7.75;;;;;;;21.34;41.45;101126.38;4888706;59;1142540;-62
2023/06/10 20:49:13;;;;;;;5.03;3.55;;;;;;;21.30;41.60;101127.73;4955298;57;1140924;-62
2023/06/10 20:54:19;;;;;;;8.78;2.50;;;;;;;21.26;41.86;101128.25;5032010;57;1138546;-64
2023/06/10 20:59:24;;;;;;;8.25;2.65;;;;;;;21.19;42.28;101127.25;4979737;57;1138489;-64
2023/06/10 21:04:32;;;;;;;8.83;2.35;;;;;;;21.01;42.32;101124.77;4981158;57;1138598;-63
2023/06/10 21:09:37;;;;;;;6.97;1.82;;;;;;;20.90;42.84;101132.70;4951976;57;1138651;-63
2023/06/10 21:14:43;;;;;;;10.53;4.87;;;;;;;20.75;43.33;101131.72;4993840;57;1138812;-63
2023/06/10 21:19:48;;;;;;;7.08;2.15;;;;;;;20.62;43.93;101132.21;5038358;57;1140923;-62
2023/06/10 21:24:54;;;;;;;5.22;2.42;;;;;;;20.48;44.18;101132.05;5018978;57;1139092;-62
2023/06/10 21:30:00;;;;;;;7.62;2.15;;;;;;;20.27;44.80;101129.34;5018696;57;1138649;-62
2023/06/10 21:35:06;;;;;;;3.33;1.62;;;;;;;20.11;45.53;101130.67;5012621;57;1138915;-63
2023/06/10 21:40:13;;;;;;;14.98;6.55;;;;;;;20.02;45.85;101140.55;4937824;58;1138641;-63
2023/06/10 21:45:19;;;;;;;13.85;3.12;;;;;;;19.91;46.48;101134.66;5010907;57;1140797;-63
2023/06/10 21:50:24;;;;;;;4.30;2.15;;;;;;;19.81;46.59;101141.52;5018839;57;1140973;-62
2023/06/10 21:55:30;;;;;;;4.37;2.12;;;;;;;19.68;47.15;101141.66;5038273;57;1138747;-62
2023/06/10 22:00:36;;;;;;;4.62;2.02;;;;;;;19.60;47.27;101140.61;5006203;57;1138556;-62
2023/06/10 22:05:41;;;;;;;10.50;2.30;;;;;;;19.54;48.25;101133.23;4938278;57;1138630;-62
2023/06/10 22:10:47;;;;;;;9.58;3.47;;;;;;;19.42;48.65;101134.46;4957224;57;1140643;-63
2023/06/10 22:15:53;;;;;;;7.00;2.90;;;;;;;19.32;48.65;101131.91;4938308;57;1138610;-63
2023/06/10 22:20:58;;;;;;;13.57;8.07;;;;;;;19.17;49.09;101125.47;4938405;57;1138875;-64
2023/06/10 22:26:05;;;;;;;8.53;3.45;;;;;;;19.02;49.47;101123.05;4956982;57;1140552;-63
2023/06/10 22:31:10;;;;;;;3.50;2.15;;;;;;;18.94;49.92;101123.82;4938457;57;1138696;-63
2023/06/10 22:36:16;;;;;;;7.72;2.80;;;;;;;18.83;50.60;101125.44;4937832;57;1138688;-62
2023/06/10 22:41:22;;;;;;;3.37;2.45;;;;;;;18.61;51.03;101132.66;4934812;57;1138722;-63
2023/06/10 22:46:27;;;;;;;4.20;2.52;;;;;;;18.45;52.08;101126.65;5038108;57;1138752;-62
2023/06/10 22:51:34;;;;;;;6.37;3.00;;;;;;;18.35;52.01;101129.89;5018519;57;1138530;-62
2023/06/10 22:56:39;;;;;;;4.50;2.73;;;;;;;18.30;52.31;101124.67;5018830;57;1138652;-62
2023/06/10 23:01:45;;;;;;;5.05;3.00;;;;;;;18.10;52.80;101125.31;5038198;57;1138755;-62